YMSO weather

Mount Sandon Airport
New South Wales, Australia

Public forecast

Using degrees Celsius for public forecast. Weather courtesy of forecast.io.

METAR (pilot weather report)

Closest report is Tamworth Airport, 34.3 nm (63.4 km) WNW. Retrieved 2019/04/19 15:30 UTC (26 minutes ago):

YSTW 191530Z AUTO 11010KT 9999 // NCD 20/13 Q1025 RF00.0/000.0

TAF (pilot weather forecast)

Closest forecast is Tamworth Airport, 34.3 nm (63.4 km) WNW. Retrieved 2019/04/19 12:36 UTC (3 hours ago):

TAF TAF YSTW 191042Z 1912/2006 12010KT CAVOK FM191600 12010KT 9999 FEW010 FM200200 09012KT 9999 SCT050